sensor_id;sensor_type;location;lat;lon;timestamp;pressure;altitude;pressure_sealevel;temperature;humidity
62864;BME280;48954;59.950;11.014;2022-12-18T00:02:11;99639.48;;;-4.94;85.23
62864;BME280;48954;59.950;11.014;2022-12-18T00:04:38;99636.02;;;-4.93;85.19
62864;BME280;48954;59.950;11.014;2022-12-18T00:07:04;99633.74;;;-4.93;84.96
62864;BME280;48954;59.950;11.014;2022-12-18T00:09:36;99635.35;;;-4.93;85.21
62864;BME280;48954;59.950;11.014;2022-12-18T00:12:02;99637.00;;;-4.92;85.02
62864;BME280;48954;59.950;11.014;2022-12-18T00:14:29;99636.20;;;-4.92;85.22
62864;BME280;48954;59.950;11.014;2022-12-18T00:16:55;99638.63;;;-4.91;85.17
62864;BME280;48954;59.950;11.014;2022-12-18T00:19:22;99642.11;;;-4.93;85.28
62864;BME280;48954;59.950;11.014;2022-12-18T00:21:48;99641.95;;;-4.95;85.11
62864;BME280;48954;59.950;11.014;2022-12-18T00:24:15;99638.83;;;-4.96;85.21
62864;BME280;48954;59.950;11.014;2022-12-18T00:26:41;99633.98;;;-4.98;85.48
62864;BME280;48954;59.950;11.014;2022-12-18T00:29:11;99632.77;;;-4.97;85.44
62864;BME280;48954;59.950;11.014;2022-12-18T00:31:42;99633.58;;;-4.94;85.61
62864;BME280;48954;59.950;11.014;2022-12-18T00:34:11;99628.44;;;-4.94;85.55
62864;BME280;48954;59.950;11.014;2022-12-18T00:39:20;99618.14;;;-4.94;85.47
62864;BME280;48954;59.950;11.014;2022-12-18T00:41:46;99609.11;;;-4.92;85.38
62864;BME280;48954;59.950;11.014;2022-12-18T00:44:18;99608.86;;;-4.90;85.81
62864;BME280;48954;59.950;11.014;2022-12-18T00:46:48;99604.58;;;-4.88;85.45
62864;BME280;48954;59.950;11.014;2022-12-18T00:49:18;99609.09;;;-4.87;85.67
62864;BME280;48954;59.950;11.014;2022-12-18T00:51:45;99606.02;;;-4.88;85.30
62864;BME280;48954;59.950;11.014;2022-12-18T00:54:11;99611.66;;;-4.88;85.30
62864;BME280;48954;59.950;11.014;2022-12-18T00:56:38;99613.64;;;-4.88;85.43
62864;BME280;48954;59.950;11.014;2022-12-18T00:59:10;99620.56;;;-4.88;85.48
62864;BME280;48954;59.950;11.014;2022-12-18T01:01:37;99620.89;;;-4.87;85.75
62864;BME280;48954;59.950;11.014;2022-12-18T01:04:03;99613.66;;;-4.86;85.78
62864;BME280;48954;59.950;11.014;2022-12-18T01:06:30;99611.74;;;-4.84;85.48
62864;BME280;48954;59.950;11.014;2022-12-18T01:08:57;99618.61;;;-4.81;85.54
62864;BME280;48954;59.950;11.014;2022-12-18T01:11:23;99619.91;;;-4.78;85.68
62864;BME280;48954;59.950;11.014;2022-12-18T01:13:52;99622.39;;;-4.75;85.73
62864;BME280;48954;59.950;11.014;2022-12-18T01:16:19;99611.94;;;-4.73;85.90
62864;BME280;48954;59.950;11.014;2022-12-18T01:18:45;99606.42;;;-4.72;85.72
62864;BME280;48954;59.950;11.014;2022-12-18T01:21:15;99608.31;;;-4.69;85.49
62864;BME280;48954;59.950;11.014;2022-12-18T01:23:42;99608.41;;;-4.67;86.03
62864;BME280;48954;59.950;11.014;2022-12-18T01:26:11;99609.33;;;-4.64;85.91
62864;BME280;48954;59.950;11.014;2022-12-18T01:28:38;99600.39;;;-4.61;85.47
62864;BME280;48954;59.950;11.014;2022-12-18T01:33:40;99600.25;;;-4.56;85.71
62864;BME280;48954;59.950;11.014;2022-12-18T01:36:14;99595.16;;;-4.55;85.55
62864;BME280;48954;59.950;11.014;2022-12-18T01:38:41;99593.80;;;-4.51;86.08
62864;BME280;48954;59.950;11.014;2022-12-18T01:41:08;99591.99;;;-4.49;85.73
62864;BME280;48954;59.950;11.014;2022-12-18T01:46:11;99585.48;;;-4.42;86.30
62864;BME280;48954;59.950;11.014;2022-12-18T01:48:39;99580.29;;;-4.32;86.68
62864;BME280;48954;59.950;11.014;2022-12-18T01:51:08;99578.67;;;-4.25;86.63
62864;BME280;48954;59.950;11.014;2022-12-18T01:53:37;99567.95;;;-4.08;87.35
62864;BME280;48954;59.950;11.014;2022-12-18T01:56:05;99561.32;;;-3.67;89.18
62864;BME280;48954;59.950;11.014;2022-12-18T01:58:56;99555.33;;;-3.23;90.08
62864;BME280;48954;59.950;11.014;2022-12-18T02:01:26;99551.69;;;-2.72;90.39
62864;BME280;48954;59.950;11.014;2022-12-18T02:03:52;99550.85;;;-2.32;90.41
62864;BME280;48954;59.950;11.014;2022-12-18T02:06:23;99546.67;;;-1.97;90.61
62864;BME280;48954;59.950;11.014;2022-12-18T02:09:11;99537.39;;;-1.72;90.09
62864;BME280;48954;59.950;11.014;2022-12-18T02:12:11;99528.55;;;-1.54;89.70
62864;BME280;48954;59.950;11.014;2022-12-18T02:14:49;99516.39;;;-1.37;89.53
62864;BME280;48954;59.950;11.014;2022-12-18T02:17:22;99507.95;;;-1.20;89.72
62864;BME280;48954;59.950;11.014;2022-12-18T02:31:48;99504.70;;;-0.57;89.69
62864;BME280;48954;59.950;11.014;2022-12-18T02:44:00;99504.34;;;-0.26;89.52
62864;BME280;48954;59.950;11.014;2022-12-18T02:46:33;99504.73;;;-0.20;89.40
62864;BME280;48954;59.950;11.014;2022-12-18T02:57:49;99503.86;;;-0.02;89.38
62864;BME280;48954;59.950;11.014;2022-12-18T03:00:24;99509.55;;;0.03;89.53
62864;BME280;48954;59.950;11.014;2022-12-18T03:03:01;99512.31;;;0.06;89.38
62864;BME280;48954;59.950;11.014;2022-12-18T03:06:05;99511.30;;;0.09;89.34
62864;BME280;48954;59.950;11.014;2022-12-18T03:08:43;99499.48;;;0.11;89.33
62864;BME280;48954;59.950;11.014;2022-12-18T03:11:13;99485.75;;;0.13;89.38
62864;BME280;48954;59.950;11.014;2022-12-18T03:13:45;99483.01;;;0.15;89.41
62864;BME280;48954;59.950;11.014;2022-12-18T03:16:19;99479.19;;;0.17;89.37
62864;BME280;48954;59.950;11.014;2022-12-18T03:18:54;99482.80;;;0.18;89.37
62864;BME280;48954;59.950;11.014;2022-12-18T03:21:28;99488.30;;;0.19;89.32
62864;BME280;48954;59.950;11.014;2022-12-18T03:23:57;99475.83;;;0.21;89.40
62864;BME280;48954;59.950;11.014;2022-12-18T03:26:27;99468.63;;;0.21;89.39
62864;BME280;48954;59.950;11.014;2022-12-18T03:29:00;99479.83;;;0.21;89.36
62864;BME280;48954;59.950;11.014;2022-12-18T03:31:31;99484.09;;;0.22;89.28
62864;BME280;48954;59.950;11.014;2022-12-18T03:34:16;99482.50;;;0.23;89.47
62864;BME280;48954;59.950;11.014;2022-12-18T03:36:45;99483.39;;;0.25;89.61
62864;BME280;48954;59.950;11.014;2022-12-18T03:39:13;99480.84;;;0.27;89.30
62864;BME280;48954;59.950;11.014;2022-12-18T03:41:47;99475.63;;;0.29;89.39
62864;BME280;48954;59.950;11.014;2022-12-18T03:44:31;99465.85;;;0.30;89.57
62864;BME280;48954;59.950;11.014;2022-12-18T03:47:15;99458.74;;;0.32;89.54
62864;BME280;48954;59.950;11.014;2022-12-18T03:52:36;99453.95;;;0.31;89.43
62864;BME280;48954;59.950;11.014;2022-12-18T03:55:07;99450.48;;;0.31;89.36
62864;BME280;48954;59.950;11.014;2022-12-18T03:57:36;99454.15;;;0.32;89.38
62864;BME280;48954;59.950;11.014;2022-12-18T04:00:07;99462.77;;;0.31;89.38
62864;BME280;48954;59.950;11.014;2022-12-18T04:02:36;99476.11;;;0.32;89.28
62864;BME280;48954;59.950;11.014;2022-12-18T04:05:22;99485.44;;;0.34;89.35
62864;BME280;48954;59.950;11.014;2022-12-18T04:08:05;99490.46;;;0.34;89.23
62864;BME280;48954;59.950;11.014;2022-12-18T04:11:05;99497.50;;;0.34;89.26
62864;BME280;48954;59.950;11.014;2022-12-18T04:13:36;99501.61;;;0.34;89.29
62864;BME280;48954;59.950;11.014;2022-12-18T04:16:17;99496.20;;;0.34;89.11
62864;BME280;48954;59.950;11.014;2022-12-18T04:18:58;99494.73;;;0.35;89.14
62864;BME280;48954;59.950;11.014;2022-12-18T04:21:39;99487.73;;;0.36;89.24
62864;BME280;48954;59.950;11.014;2022-12-18T05:49:18;99495.73;;;0.24;88.84
62864;BME280;48954;59.950;11.014;2022-12-18T05:52:22;99493.42;;;0.24;88.66
62864;BME280;48954;59.950;11.014;2022-12-18T05:55:23;99492.40;;;0.23;88.73
62864;BME280;48954;59.950;11.014;2022-12-18T06:04:22;99489.73;;;0.21;88.53
62864;BME280;48954;59.950;11.014;2022-12-18T06:09:46;99479.17;;;0.18;88.54
62864;BME280;48954;59.950;11.014;2022-12-18T06:13:03;99478.10;;;0.17;88.77
62864;BME280;48954;59.950;11.014;2022-12-18T06:15:46;99478.17;;;0.16;88.66
62864;BME280;48954;59.950;11.014;2022-12-18T06:18:27;99480.98;;;0.14;88.48
62864;BME280;48954;59.950;11.014;2022-12-18T06:20:56;99496.86;;;0.13;88.58
62864;BME280;48954;59.950;11.014;2022-12-18T06:23:40;99505.45;;;0.13;88.63
62864;BME280;48954;59.950;11.014;2022-12-18T06:26:23;99502.03;;;0.11;88.46
62864;BME280;48954;59.950;11.014;2022-12-18T06:29:06;99506.36;;;0.10;88.74
62864;BME280;48954;59.950;11.014;2022-12-18T06:32:08;99514.95;;;0.08;88.42
62864;BME280;48954;59.950;11.014;2022-12-18T06:35:06;99534.03;;;0.08;88.47
62864;BME280;48954;59.950;11.014;2022-12-18T06:37:46;99540.36;;;0.07;88.63
62864;BME280;48954;59.950;11.014;2022-12-18T06:40:49;99543.42;;;0.10;88.79
62864;BME280;48954;59.950;11.014;2022-12-18T06:43:51;99542.44;;;0.10;88.55
62864;BME280;48954;59.950;11.014;2022-12-18T06:46:39;99534.55;;;0.10;88.49
62864;BME280;48954;59.950;11.014;2022-12-18T06:49:43;99525.96;;;0.09;88.47
62864;BME280;48954;59.950;11.014;2022-12-18T06:52:11;99527.33;;;0.08;88.39
62864;BME280;48954;59.950;11.014;2022-12-18T06:55:00;99531.59;;;0.08;88.47
62864;BME280;48954;59.950;11.014;2022-12-18T06:57:50;99541.88;;;0.07;88.41
62864;BME280;48954;59.950;11.014;2022-12-18T07:00:37;99545.14;;;0.06;88.61
62864;BME280;48954;59.950;11.014;2022-12-18T07:03:46;99541.11;;;0.05;88.50
62864;BME280;48954;59.950;11.014;2022-12-18T07:06:16;99541.36;;;0.03;88.43
62864;BME280;48954;59.950;11.014;2022-12-18T07:09:15;99545.47;;;-0.00;88.42
62864;BME280;48954;59.950;11.014;2022-12-18T07:11:56;99533.93;;;-0.02;88.41
62864;BME280;48954;59.950;11.014;2022-12-18T07:14:36;99537.05;;;-0.06;88.17
62864;BME280;48954;59.950;11.014;2022-12-18T07:17:18;99526.70;;;-0.08;88.33
62864;BME280;48954;59.950;11.014;2022-12-18T07:19:59;99534.62;;;-0.10;88.42
62864;BME280;48954;59.950;11.014;2022-12-18T07:22:40;99537.92;;;-0.13;88.26
62864;BME280;48954;59.950;11.014;2022-12-18T07:25:25;99534.86;;;-0.13;88.10
62864;BME280;48954;59.950;11.014;2022-12-18T07:28:08;99530.06;;;-0.14;88.38
62864;BME280;48954;59.950;11.014;2022-12-18T07:30:37;99530.52;;;-0.15;88.25
62864;BME280;48954;59.950;11.014;2022-12-18T07:33:09;99538.63;;;-0.15;88.42
62864;BME280;48954;59.950;11.014;2022-12-18T07:35:37;99550.79;;;-0.16;88.21
62864;BME280;48954;59.950;11.014;2022-12-18T07:38:13;99562.27;;;-0.16;88.22
62864;BME280;48954;59.950;11.014;2022-12-18T07:41:15;99563.61;;;-0.16;88.20
62864;BME280;48954;59.950;11.014;2022-12-18T07:43:47;99561.61;;;-0.16;88.28
62864;BME280;48954;59.950;11.014;2022-12-18T07:46:28;99579.78;;;-0.16;88.10
62864;BME280;48954;59.950;11.014;2022-12-18T07:49:09;99579.54;;;-0.19;88.01
62864;BME280;48954;59.950;11.014;2022-12-18T07:51:37;99579.23;;;-0.20;88.16
62864;BME280;48954;59.950;11.014;2022-12-18T07:54:12;99587.36;;;-0.22;88.02
62864;BME280;48954;59.950;11.014;2022-12-18T07:56:40;99587.00;;;-0.24;87.93
62864;BME280;48954;59.950;11.014;2022-12-18T07:59:20;99594.87;;;-0.25;88.08
62864;BME280;48954;59.950;11.014;2022-12-18T08:01:52;99601.70;;;-0.26;87.95
62864;BME280;48954;59.950;11.014;2022-12-18T08:04:28;99596.17;;;-0.28;88.02
62864;BME280;48954;59.950;11.014;2022-12-18T08:07:08;99595.89;;;-0.28;88.18
62864;BME280;48954;59.950;11.014;2022-12-18T08:09:37;99589.26;;;-0.29;88.23
62864;BME280;48954;59.950;11.014;2022-12-18T08:12:13;99584.02;;;-0.30;88.27
62864;BME280;48954;59.950;11.014;2022-12-18T08:15:02;99578.27;;;-0.32;88.14
62864;BME280;48954;59.950;11.014;2022-12-18T08:17:31;99578.34;;;-0.33;88.02
62864;BME280;48954;59.950;11.014;2022-12-18T08:19:58;99583.24;;;-0.32;88.09
62864;BME280;48954;59.950;11.014;2022-12-18T08:22:35;99589.02;;;-0.31;88.31
62864;BME280;48954;59.950;11.014;2022-12-18T08:25:17;99589.40;;;-0.32;88.07
62864;BME280;48954;59.950;11.014;2022-12-18T08:28:01;99591.06;;;-0.31;88.24
62864;BME280;48954;59.950;11.014;2022-12-18T08:30:28;99596.67;;;-0.30;88.16
62864;BME280;48954;59.950;11.014;2022-12-18T08:32:56;99601.89;;;-0.27;88.34
62864;BME280;48954;59.950;11.014;2022-12-18T08:35:37;99606.51;;;-0.26;88.37
62864;BME280;48954;59.950;11.014;2022-12-18T08:38:04;99612.45;;;-0.26;88.28
62864;BME280;48954;59.950;11.014;2022-12-18T08:40:36;99611.94;;;-0.25;88.18
62864;BME280;48954;59.950;11.014;2022-12-18T08:43:04;99602.69;;;-0.24;88.15
62864;BME280;48954;59.950;11.014;2022-12-18T08:45:46;99607.90;;;-0.22;88.16
62864;BME280;48954;59.950;11.014;2022-12-18T08:48:13;99609.67;;;-0.21;88.21
62864;BME280;48954;59.950;11.014;2022-12-18T08:50:54;99620.88;;;-0.22;87.99
62864;BME280;48954;59.950;11.014;2022-12-18T08:53:35;99629.98;;;-0.20;88.06
62864;BME280;48954;59.950;11.014;2022-12-18T08:56:03;99626.05;;;-0.17;88.18
62864;BME280;48954;59.950;11.014;2022-12-18T08:58:30;99631.56;;;-0.16;87.88
62864;BME280;48954;59.950;11.014;2022-12-18T09:01:04;99642.80;;;-0.15;88.04
62864;BME280;48954;59.950;11.014;2022-12-18T09:03:32;99647.33;;;-0.15;87.80
62864;BME280;48954;59.950;11.014;2022-12-18T09:05:59;99651.70;;;-0.14;87.76
62864;BME280;48954;59.950;11.014;2022-12-18T09:08:30;99649.92;;;-0.14;87.80
62864;BME280;48954;59.950;11.014;2022-12-18T09:11:20;99658.27;;;-0.14;87.55
62864;BME280;48954;59.950;11.014;2022-12-18T09:13:49;99671.39;;;-0.14;87.83
62864;BME280;48954;59.950;11.014;2022-12-18T09:16:16;99674.80;;;-0.14;87.65
62864;BME280;48954;59.950;11.014;2022-12-18T09:19:02;99675.87;;;-0.14;87.56
62864;BME280;48954;59.950;11.014;2022-12-18T09:21:33;99675.81;;;-0.14;87.61
62864;BME280;48954;59.950;11.014;2022-12-18T09:24:01;99678.87;;;-0.13;87.64
62864;BME280;48954;59.950;11.014;2022-12-18T09:26:28;99681.09;;;-0.09;87.35
62864;BME280;48954;59.950;11.014;2022-12-18T09:28:54;99698.90;;;-0.06;87.59
62864;BME280;48954;59.950;11.014;2022-12-18T09:31:23;99705.64;;;-0.04;87.45
62864;BME280;48954;59.950;11.014;2022-12-18T09:33:50;99723.86;;;0.00;87.16
62864;BME280;48954;59.950;11.014;2022-12-18T09:36:18;99734.27;;;0.10;87.37
62864;BME280;48954;59.950;11.014;2022-12-18T09:38:45;99730.73;;;0.20;86.96
62864;BME280;48954;59.950;11.014;2022-12-18T09:44:05;99751.52;;;0.23;86.64
62864;BME280;48954;59.950;11.014;2022-12-18T09:46:42;99758.55;;;0.24;86.83
62864;BME280;48954;59.950;11.014;2022-12-18T09:49:12;99760.49;;;0.24;86.97
62864;BME280;48954;59.950;11.014;2022-12-18T09:51:52;99763.52;;;0.25;86.61
62864;BME280;48954;59.950;11.014;2022-12-18T09:54:35;99764.11;;;0.24;86.91
62864;BME280;48954;59.950;11.014;2022-12-18T09:57:04;99765.41;;;0.24;86.52
62864;BME280;48954;59.950;11.014;2022-12-18T09:59:37;99764.41;;;0.22;86.49
62864;BME280;48954;59.950;11.014;2022-12-18T10:02:19;99768.48;;;0.20;86.43
62864;BME280;48954;59.950;11.014;2022-12-18T10:05:02;99770.41;;;0.17;86.24
62864;BME280;48954;59.950;11.014;2022-12-18T10:08:11;99778.85;;;0.13;86.11
62864;BME280;48954;59.950;11.014;2022-12-18T10:10:52;99790.11;;;0.09;86.17
62864;BME280;48954;59.950;11.014;2022-12-18T10:13:24;99793.70;;;0.07;86.20
62864;BME280;48954;59.950;11.014;2022-12-18T10:16:06;99800.31;;;0.06;86.31
62864;BME280;48954;59.950;11.014;2022-12-18T10:21:51;99795.95;;;0.03;86.40
62864;BME280;48954;59.950;11.014;2022-12-18T10:24:37;99798.23;;;0.04;86.43
62864;BME280;48954;59.950;11.014;2022-12-18T10:27:14;99805.83;;;0.05;86.35
62864;BME280;48954;59.950;11.014;2022-12-18T10:29:42;99814.35;;;0.08;86.35
62864;BME280;48954;59.950;11.014;2022-12-18T10:32:19;99821.25;;;0.10;86.62
62864;BME280;48954;59.950;11.014;2022-12-18T10:34:47;99832.88;;;0.14;86.52
62864;BME280;48954;59.950;11.014;2022-12-18T10:37:19;99841.81;;;0.18;86.22
62864;BME280;48954;59.950;11.014;2022-12-18T10:40:06;99847.20;;;0.20;86.46
62864;BME280;48954;59.950;11.014;2022-12-18T10:42:33;99853.35;;;0.23;86.20
62864;BME280;48954;59.950;11.014;2022-12-18T10:45:18;99849.92;;;0.23;86.06
62864;BME280;48954;59.950;11.014;2022-12-18T10:47:46;99865.55;;;0.25;86.00
62864;BME280;48954;59.950;11.014;2022-12-18T10:50:31;99857.29;;;0.26;85.94
62864;BME280;48954;59.950;11.014;2022-12-18T10:53:28;99871.21;;;0.29;86.06
62864;BME280;48954;59.950;11.014;2022-12-18T10:56:10;99884.19;;;0.30;85.78
62864;BME280;48954;59.950;11.014;2022-12-18T10:58:38;99888.19;;;0.31;85.91
62864;BME280;48954;59.950;11.014;2022-12-18T11:03:38;99894.17;;;0.32;85.75
62864;BME280;48954;59.950;11.014;2022-12-18T11:06:29;99894.64;;;0.35;85.86
62864;BME280;48954;59.950;11.014;2022-12-18T11:09:19;99898.80;;;0.37;85.90
62864;BME280;48954;59.950;11.014;2022-12-18T11:11:55;99912.95;;;0.41;85.75
62864;BME280;48954;59.950;11.014;2022-12-18T11:14:25;99919.56;;;0.56;86.13
62864;BME280;48954;59.950;11.014;2022-12-18T11:16:53;99924.14;;;0.71;85.78
62864;BME280;48954;59.950;11.014;2022-12-18T11:19:31;99934.82;;;0.99;85.61
62864;BME280;48954;59.950;11.014;2022-12-18T11:21:59;99936.86;;;1.66;84.57
62864;BME280;48954;59.950;11.014;2022-12-18T11:24:32;99941.23;;;2.00;84.12
62864;BME280;48954;59.950;11.014;2022-12-18T11:27:02;99945.00;;;1.96;83.60
62864;BME280;48954;59.950;11.014;2022-12-18T11:29:43;99940.92;;;1.66;83.38
62864;BME280;48954;59.950;11.014;2022-12-18T11:32:39;99933.65;;;1.46;83.22
62864;BME280;48954;59.950;11.014;2022-12-18T11:38:00;99934.09;;;1.13;83.36
62864;BME280;48954;59.950;11.014;2022-12-18T11:40:37;99940.86;;;1.01;83.56
62864;BME280;48954;59.950;11.014;2022-12-18T11:43:16;99948.40;;;0.92;83.66
62864;BME280;48954;59.950;11.014;2022-12-18T11:45:52;99947.79;;;0.85;83.58
62864;BME280;48954;59.950;11.014;2022-12-18T11:54:19;99966.67;;;0.67;83.71
62864;BME280;48954;59.950;11.014;2022-12-18T11:57:25;99974.02;;;0.62;83.77
62864;BME280;48954;59.950;11.014;2022-12-18T12:11:20;100007.57;;;0.46;84.21
62864;BME280;48954;59.950;11.014;2022-12-18T12:13:43;100014.20;;;0.43;84.18
62864;BME280;48954;59.950;11.014;2022-12-18T12:16:36;100019.48;;;0.39;84.07
62864;BME280;48954;59.950;11.014;2022-12-18T12:19:20;100027.21;;;0.37;84.34
62864;BME280;48954;59.950;11.014;2022-12-18T12:22:13;100032.41;;;0.35;84.04
62864;BME280;48954;59.950;11.014;2022-12-18T12:24:57;100042.05;;;0.33;84.06
62864;BME280;48954;59.950;11.014;2022-12-18T12:30:18;100061.47;;;0.27;84.39
62864;BME280;48954;59.950;11.014;2022-12-18T12:35:34;100070.77;;;0.24;84.17
62864;BME280;48954;59.950;11.014;2022-12-18T12:38:28;100071.10;;;0.22;84.45
62864;BME280;48954;59.950;11.014;2022-12-18T12:41:13;100078.00;;;0.18;84.16
62864;BME280;48954;59.950;11.014;2022-12-18T12:43:44;100087.71;;;0.14;84.12
62864;BME280;48954;59.950;11.014;2022-12-18T12:46:16;100095.43;;;0.10;84.06
62864;BME280;48954;59.950;11.014;2022-12-18T12:48:47;100094.21;;;0.06;84.14
62864;BME280;48954;59.950;11.014;2022-12-18T12:51:19;100100.73;;;0.01;84.32
62864;BME280;48954;59.950;11.014;2022-12-18T12:53:48;100107.27;;;-0.05;84.12
62864;BME280;48954;59.950;11.014;2022-12-18T12:56:17;100110.11;;;-0.10;84.29
62864;BME280;48954;59.950;11.014;2022-12-18T12:59:08;100107.40;;;-0.15;84.06
62864;BME280;48954;59.950;11.014;2022-12-18T13:02:10;100110.77;;;-0.21;84.18
62864;BME280;48954;59.950;11.014;2022-12-18T13:05:26;100118.45;;;-0.27;84.08
62864;BME280;48954;59.950;11.014;2022-12-18T13:15:33;100152.95;;;-0.44;84.12
62864;BME280;48954;59.950;11.014;2022-12-18T13:18:13;100155.66;;;-0.50;84.29
62864;BME280;48954;59.950;11.014;2022-12-18T13:21:01;100168.62;;;-0.54;84.43
62864;BME280;48954;59.950;11.014;2022-12-18T13:23:36;100178.19;;;-0.60;84.27
62864;BME280;48954;59.950;11.014;2022-12-18T13:31:12;100195.77;;;-0.71;84.44
62864;BME280;48954;59.950;11.014;2022-12-18T13:33:44;100198.16;;;-0.76;84.36
62864;BME280;48954;59.950;11.014;2022-12-18T13:36:15;100203.80;;;-0.80;84.07
62864;BME280;48954;59.950;11.014;2022-12-18T13:38:44;100207.16;;;-0.85;84.17
62864;BME280;48954;59.950;11.014;2022-12-18T13:41:26;100211.05;;;-0.92;84.29
62864;BME280;48954;59.950;11.014;2022-12-18T13:43:54;100217.27;;;-0.97;84.45
62864;BME280;48954;59.950;11.014;2022-12-18T13:51:42;100220.58;;;-1.06;84.56
62864;BME280;48954;59.950;11.014;2022-12-18T13:54:19;100222.14;;;-1.11;84.55
62864;BME280;48954;59.950;11.014;2022-12-18T13:56:48;100227.59;;;-1.14;84.52
62864;BME280;48954;59.950;11.014;2022-12-18T14:02:28;100237.10;;;-1.22;84.78
62864;BME280;48954;59.950;11.014;2022-12-18T14:04:35;100245.61;;;-1.27;84.76
62864;BME280;48954;59.950;11.014;2022-12-18T14:07:04;100250.92;;;-1.31;84.80
62864;BME280;48954;59.950;11.014;2022-12-18T14:09:37;100260.19;;;-1.37;84.64
62864;BME280;48954;59.950;11.014;2022-12-18T14:12:11;100264.17;;;-1.44;84.63
62864;BME280;48954;59.950;11.014;2022-12-18T14:14:44;100271.71;;;-1.51;84.74
62864;BME280;48954;59.950;11.014;2022-12-18T14:17:11;100280.61;;;-1.58;84.65
62864;BME280;48954;59.950;11.014;2022-12-18T14:19:45;100285.98;;;-1.63;85.01
62864;BME280;48954;59.950;11.014;2022-12-18T14:22:18;100288.98;;;-1.68;84.98
62864;BME280;48954;59.950;11.014;2022-12-18T14:24:46;100292.16;;;-1.71;85.31
62864;BME280;48954;59.950;11.014;2022-12-18T14:27:24;100298.90;;;-1.74;84.98
62864;BME280;48954;59.950;11.014;2022-12-18T14:29:52;100305.30;;;-1.79;85.06
62864;BME280;48954;59.950;11.014;2022-12-18T14:32:20;100313.48;;;-1.85;84.72
62864;BME280;48954;59.950;11.014;2022-12-18T14:34:50;100318.91;;;-1.88;84.88
62864;BME280;48954;59.950;11.014;2022-12-18T14:37:23;100314.67;;;-1.93;84.99
62864;BME280;48954;59.950;11.014;2022-12-18T14:39:57;100311.66;;;-1.97;85.20
62864;BME280;48954;59.950;11.014;2022-12-18T14:42:25;100313.03;;;-2.00;85.23
62864;BME280;48954;59.950;11.014;2022-12-18T14:47:59;100311.92;;;-2.09;85.12
62864;BME280;48954;59.950;11.014;2022-12-18T14:50:26;100321.89;;;-2.11;85.17
62864;BME280;48954;59.950;11.014;2022-12-18T14:52:52;100325.85;;;-2.13;85.52
62864;BME280;48954;59.950;11.014;2022-12-18T14:55:20;100328.55;;;-2.14;85.48
62864;BME280;48954;59.950;11.014;2022-12-18T14:57:52;100339.32;;;-2.14;85.58
62864;BME280;48954;59.950;11.014;2022-12-18T15:00:23;100333.89;;;-2.14;85.64
62864;BME280;48954;59.950;11.014;2022-12-18T15:02:54;100333.08;;;-2.13;85.80
62864;BME280;48954;59.950;11.014;2022-12-18T15:05:29;100334.63;;;-2.14;86.18
62864;BME280;48954;59.950;11.014;2022-12-18T15:07:59;100338.48;;;-2.13;86.03
62864;BME280;48954;59.950;11.014;2022-12-18T15:10:28;100341.69;;;-2.14;85.99
62864;BME280;48954;59.950;11.014;2022-12-18T15:20:52;100339.84;;;-2.28;85.70
62864;BME280;48954;59.950;11.014;2022-12-18T15:23:58;100337.70;;;-2.32;85.90
62864;BME280;48954;59.950;11.014;2022-12-18T15:26:25;100336.93;;;-2.37;85.53
62864;BME280;48954;59.950;11.014;2022-12-18T15:28:56;100338.52;;;-2.42;85.69
62864;BME280;48954;59.950;11.014;2022-12-18T15:36:16;100353.73;;;-2.54;85.82
62864;BME280;48954;59.950;11.014;2022-12-18T15:38:51;100354.93;;;-2.58;85.82
62864;BME280;48954;59.950;11.014;2022-12-18T15:41:20;100358.48;;;-2.60;86.11
62864;BME280;48954;59.950;11.014;2022-12-18T15:43:49;100363.35;;;-2.64;85.70
62864;BME280;48954;59.950;11.014;2022-12-18T15:46:21;100365.52;;;-2.69;85.64
62864;BME280;48954;59.950;11.014;2022-12-18T15:48:50;100367.42;;;-2.73;85.64
62864;BME280;48954;59.950;11.014;2022-12-18T15:51:23;100376.66;;;-2.76;85.52
62864;BME280;48954;59.950;11.014;2022-12-18T15:53:53;100382.90;;;-2.81;85.42
62864;BME280;48954;59.950;11.014;2022-12-18T15:56:21;100385.45;;;-2.85;85.76
62864;BME280;48954;59.950;11.014;2022-12-18T15:58:49;100385.45;;;-2.87;85.58
62864;BME280;48954;59.950;11.014;2022-12-18T16:01:16;100385.36;;;-2.90;85.75
62864;BME280;48954;59.950;11.014;2022-12-18T16:03:43;100388.79;;;-2.92;85.86
62864;BME280;48954;59.950;11.014;2022-12-18T16:06:10;100397.85;;;-2.95;85.42
62864;BME280;48954;59.950;11.014;2022-12-18T16:08:37;100401.15;;;-2.98;85.68
62864;BME280;48954;59.950;11.014;2022-12-18T16:11:03;100402.61;;;-3.01;85.44
62864;BME280;48954;59.950;11.014;2022-12-18T16:13:30;100412.14;;;-3.04;85.73
62864;BME280;48954;59.950;11.014;2022-12-18T16:15:57;100414.98;;;-3.09;85.39
62864;BME280;48954;59.950;11.014;2022-12-18T16:18:29;100416.45;;;-3.15;85.46
62864;BME280;48954;59.950;11.014;2022-12-18T16:20:55;100418.39;;;-3.22;85.66
62864;BME280;48954;59.950;11.014;2022-12-18T16:23:30;100416.86;;;-3.31;85.32
62864;BME280;48954;59.950;11.014;2022-12-18T16:25:56;100424.60;;;-3.40;85.23
62864;BME280;48954;59.950;11.014;2022-12-18T16:28:23;100424.95;;;-3.51;84.96
62864;BME280;48954;59.950;11.014;2022-12-18T16:30:50;100430.05;;;-3.61;85.26
62864;BME280;48954;59.950;11.014;2022-12-18T16:33:18;100431.93;;;-3.70;84.94
62864;BME280;48954;59.950;11.014;2022-12-18T16:35:51;100439.16;;;-3.80;85.13
62864;BME280;48954;59.950;11.014;2022-12-18T16:38:22;100441.56;;;-3.88;85.20
62864;BME280;48954;59.950;11.014;2022-12-18T16:40:48;100445.70;;;-3.92;85.75
62864;BME280;48954;59.950;11.014;2022-12-18T16:43:16;100450.34;;;-3.95;85.82
62864;BME280;48954;59.950;11.014;2022-12-18T16:45:42;100447.42;;;-3.96;86.05
62864;BME280;48954;59.950;11.014;2022-12-18T16:48:11;100456.77;;;-3.96;85.94
62864;BME280;48954;59.950;11.014;2022-12-18T16:50:37;100453.13;;;-3.95;86.24
62864;BME280;48954;59.950;11.014;2022-12-18T16:53:06;100449.09;;;-3.96;86.21
62864;BME280;48954;59.950;11.014;2022-12-18T16:55:33;100450.70;;;-3.96;86.38
62864;BME280;48954;59.950;11.014;2022-12-18T16:58:00;100449.09;;;-3.96;86.45